sensor_id;sensor_type;location;lat;lon;timestamp;pressure;altitude;pressure_sealevel;temperature;humidity
31595;BME280;18200;48.726;8.892;2023-03-03T00:03:55;96922.63;;;13.03;38.17
31595;BME280;18200;48.726;8.892;2023-03-03T00:07:55;96921.81;;;12.99;37.82
31595;BME280;18200;48.726;8.892;2023-03-03T00:11:58;96918.59;;;12.90;38.92
31595;BME280;18200;48.726;8.892;2023-03-03T00:16:21;96916.03;;;13.30;37.86
31595;BME280;18200;48.726;8.892;2023-03-03T00:20:28;96919.66;;;12.56;39.04
31595;BME280;18200;48.726;8.892;2023-03-03T00:24:36;96917.16;;;12.99;38.94
31595;BME280;18200;48.726;8.892;2023-03-03T00:28:44;96922.78;;;12.58;39.42
31595;BME280;18200;48.726;8.892;2023-03-03T00:32:46;96917.56;;;13.31;38.40
31595;BME280;18200;48.726;8.892;2023-03-03T00:36:52;96914.28;;;13.85;37.13
31595;BME280;18200;48.726;8.892;2023-03-03T00:40:54;96922.25;;;12.75;38.43
31595;BME280;18200;48.726;8.892;2023-03-03T00:44:58;96917.81;;;13.52;38.03
31595;BME280;18200;48.726;8.892;2023-03-03T00:48:59;96913.38;;;13.70;37.05
31595;BME280;18200;48.726;8.892;2023-03-03T00:53:05;96912.34;;;13.45;36.67
31595;BME280;18200;48.726;8.892;2023-03-03T00:57:06;96917.09;;;13.59;37.28
31595;BME280;18200;48.726;8.892;2023-03-03T01:01:07;96909.97;;;13.40;37.20
31595;BME280;18200;48.726;8.892;2023-03-03T01:05:16;96919.16;;;13.36;36.84
31595;BME280;18200;48.726;8.892;2023-03-03T01:09:17;96915.88;;;13.16;36.77
31595;BME280;18200;48.726;8.892;2023-03-03T01:18:39;96921.31;;;13.19;36.92
31595;BME280;18200;48.726;8.892;2023-03-03T01:22:41;96908.47;;;13.46;36.51
31595;BME280;18200;48.726;8.892;2023-03-03T01:26:43;96918.13;;;13.14;37.01
31595;BME280;18200;48.726;8.892;2023-03-03T01:30:44;96917.00;;;13.15;37.03
31595;BME280;18200;48.726;8.892;2023-03-03T01:34:44;96913.81;;;13.06;37.01
31595;BME280;18200;48.726;8.892;2023-03-03T01:38:44;96905.91;;;13.20;36.71
31595;BME280;18200;48.726;8.892;2023-03-03T01:42:45;96916.41;;;12.99;36.64
31595;BME280;18200;48.726;8.892;2023-03-03T01:46:51;96917.69;;;12.79;36.62
31595;BME280;18200;48.726;8.892;2023-03-03T01:50:56;96911.31;;;12.64;36.65
31595;BME280;18200;48.726;8.892;2023-03-03T01:55:02;96919.03;;;12.66;36.54
31595;BME280;18200;48.726;8.892;2023-03-03T01:59:22;96912.16;;;11.93;37.86
31595;BME280;18200;48.726;8.892;2023-03-03T02:03:24;96907.25;;;11.34;38.86
31595;BME280;18200;48.726;8.892;2023-03-03T02:07:27;96907.59;;;11.97;39.08
31595;BME280;18200;48.726;8.892;2023-03-03T02:11:32;96905.75;;;12.01;38.87
31595;BME280;18200;48.726;8.892;2023-03-03T02:15:34;96898.16;;;11.42;39.84
31595;BME280;18200;48.726;8.892;2023-03-03T02:20:11;96895.53;;;11.46;38.77
31595;BME280;18200;48.726;8.892;2023-03-03T02:24:25;96896.31;;;11.88;39.09
31595;BME280;18200;48.726;8.892;2023-03-03T02:28:29;96882.03;;;12.10;38.13
31595;BME280;18200;48.726;8.892;2023-03-03T02:32:30;96885.69;;;12.21;38.15
31595;BME280;18200;48.726;8.892;2023-03-03T02:36:34;96884.09;;;12.20;37.10
31595;BME280;18200;48.726;8.892;2023-03-03T02:40:36;96893.59;;;12.11;37.44
31595;BME280;18200;48.726;8.892;2023-03-03T02:44:39;96890.53;;;12.12;37.16
31595;BME280;18200;48.726;8.892;2023-03-03T02:48:40;96880.00;;;12.26;37.00
31595;BME280;18200;48.726;8.892;2023-03-03T02:52:40;96892.75;;;12.07;36.79
31595;BME280;18200;48.726;8.892;2023-03-03T02:56:41;96898.81;;;12.00;38.05
31595;BME280;18200;48.726;8.892;2023-03-03T03:00:42;96895.66;;;11.72;37.22
31595;BME280;18200;48.726;8.892;2023-03-03T03:04:42;96900.53;;;12.12;36.75
31595;BME280;18200;48.726;8.892;2023-03-03T03:08:45;96902.97;;;11.33;37.82
31595;BME280;18200;48.726;8.892;2023-03-03T03:12:46;96905.38;;;11.80;37.62
31595;BME280;18200;48.726;8.892;2023-03-03T03:16:47;96906.34;;;11.91;38.41
31595;BME280;18200;48.726;8.892;2023-03-03T03:20:48;96904.31;;;12.07;37.09
31595;BME280;18200;48.726;8.892;2023-03-03T03:24:48;96903.38;;;11.96;37.42
31595;BME280;18200;48.726;8.892;2023-03-03T03:28:50;96902.97;;;12.20;37.05
31595;BME280;18200;48.726;8.892;2023-03-03T03:32:51;96910.41;;;12.04;36.88
31595;BME280;18200;48.726;8.892;2023-03-03T03:36:52;96905.47;;;12.32;37.06
31595;BME280;18200;48.726;8.892;2023-03-03T03:40:55;96913.03;;;12.23;36.89
31595;BME280;18200;48.726;8.892;2023-03-03T03:44:56;96902.97;;;12.20;37.08
31595;BME280;18200;48.726;8.892;2023-03-03T03:48:56;96905.66;;;12.20;36.87
31595;BME280;18200;48.726;8.892;2023-03-03T03:52:57;96901.22;;;12.31;37.12
31595;BME280;18200;48.726;8.892;2023-03-03T03:56:57;96906.84;;;12.23;37.26
31595;BME280;18200;48.726;8.892;2023-03-03T04:01:04;96904.31;;;12.60;37.14
31595;BME280;18200;48.726;8.892;2023-03-03T04:05:06;96901.50;;;12.00;36.97
31595;BME280;18200;48.726;8.892;2023-03-03T04:09:08;96902.75;;;12.06;37.79
31595;BME280;18200;48.726;8.892;2023-03-03T04:13:08;96905.56;;;12.39;38.32
31595;BME280;18200;48.726;8.892;2023-03-03T04:17:15;96904.91;;;11.97;37.38
31595;BME280;18200;48.726;8.892;2023-03-03T04:21:16;96900.59;;;12.15;37.76
31595;BME280;18200;48.726;8.892;2023-03-03T04:25:19;96894.38;;;11.66;38.60
31595;BME280;18200;48.726;8.892;2023-03-03T04:29:20;96900.09;;;12.10;38.59
31595;BME280;18200;48.726;8.892;2023-03-03T04:33:22;96914.69;;;12.31;37.54
31595;BME280;18200;48.726;8.892;2023-03-03T04:37:23;96920.69;;;12.21;38.26
31595;BME280;18200;48.726;8.892;2023-03-03T04:41:24;96916.22;;;12.06;38.77
31595;BME280;18200;48.726;8.892;2023-03-03T04:45:24;96912.81;;;12.62;38.49
31595;BME280;18200;48.726;8.892;2023-03-03T04:49:25;96911.13;;;12.01;38.56
31595;BME280;18200;48.726;8.892;2023-03-03T04:53:26;96908.03;;;11.77;39.25
31595;BME280;18200;48.726;8.892;2023-03-03T04:57:27;96916.44;;;12.46;39.41
31595;BME280;18200;48.726;8.892;2023-03-03T05:01:27;96921.41;;;12.71;38.97
31595;BME280;18200;48.726;8.892;2023-03-03T05:05:29;96930.25;;;12.97;38.02
31595;BME280;18200;48.726;8.892;2023-03-03T05:09:29;96931.56;;;12.81;37.79
31595;BME280;18200;48.726;8.892;2023-03-03T05:13:30;96933.75;;;12.72;38.06
31595;BME280;18200;48.726;8.892;2023-03-03T05:17:30;96929.81;;;12.66;38.87
31595;BME280;18200;48.726;8.892;2023-03-03T05:21:31;96937.56;;;12.18;38.21
31595;BME280;18200;48.726;8.892;2023-03-03T05:25:31;96936.84;;;11.76;39.82
31595;BME280;18200;48.726;8.892;2023-03-03T05:29:31;96933.75;;;12.19;39.35
31595;BME280;18200;48.726;8.892;2023-03-03T05:33:32;96929.09;;;12.69;38.96
31595;BME280;18200;48.726;8.892;2023-03-03T05:37:32;96935.84;;;12.56;38.48
31595;BME280;18200;48.726;8.892;2023-03-03T05:41:33;96939.56;;;12.48;38.51
31595;BME280;18200;48.726;8.892;2023-03-03T05:45:35;96939.28;;;12.82;38.60
31595;BME280;18200;48.726;8.892;2023-03-03T05:49:36;96944.09;;;12.96;38.09
31595;BME280;18200;48.726;8.892;2023-03-03T05:53:36;96951.66;;;12.87;38.19
31595;BME280;18200;48.726;8.892;2023-03-03T05:57:37;96950.22;;;12.93;38.57
31595;BME280;18200;48.726;8.892;2023-03-03T06:01:37;96958.41;;;13.00;38.31
31595;BME280;18200;48.726;8.892;2023-03-03T06:05:37;96966.06;;;12.98;37.95
31595;BME280;18200;48.726;8.892;2023-03-03T06:09:38;96966.50;;;11.99;39.84
31595;BME280;18200;48.726;8.892;2023-03-03T06:13:38;96959.16;;;12.71;39.79
31595;BME280;18200;48.726;8.892;2023-03-03T06:17:41;96962.66;;;13.01;38.99
31595;BME280;18200;48.726;8.892;2023-03-03T06:21:41;96963.19;;;12.58;38.63
31595;BME280;18200;48.726;8.892;2023-03-03T06:25:42;96969.00;;;12.60;38.92
31595;BME280;18200;48.726;8.892;2023-03-03T06:29:43;96983.19;;;12.57;39.22
31595;BME280;18200;48.726;8.892;2023-03-03T06:33:44;96978.84;;;13.01;38.83
31595;BME280;18200;48.726;8.892;2023-03-03T06:37:44;96980.66;;;12.41;39.45
31595;BME280;18200;48.726;8.892;2023-03-03T06:41:44;96982.25;;;12.72;39.86
31595;BME280;18200;48.726;8.892;2023-03-03T06:45:45;96992.84;;;13.10;39.29
31595;BME280;18200;48.726;8.892;2023-03-03T06:49:45;96999.81;;;13.11;38.55
31595;BME280;18200;48.726;8.892;2023-03-03T06:53:48;97006.34;;;12.84;38.26
31595;BME280;18200;48.726;8.892;2023-03-03T06:57:49;97000.84;;;12.28;40.08
31595;BME280;18200;48.726;8.892;2023-03-03T07:01:49;97005.75;;;12.71;39.68
31595;BME280;18200;48.726;8.892;2023-03-03T07:05:51;97012.69;;;12.98;39.21
31595;BME280;18200;48.726;8.892;2023-03-03T07:09:54;97017.41;;;13.31;38.81
31595;BME280;18200;48.726;8.892;2023-03-03T07:13:55;97017.63;;;13.19;39.34
31595;BME280;18200;48.726;8.892;2023-03-03T07:17:56;97021.63;;;13.29;38.74
31595;BME280;18200;48.726;8.892;2023-03-03T07:22:20;97019.56;;;12.92;39.18
31595;BME280;18200;48.726;8.892;2023-03-03T07:26:29;97022.69;;;12.72;40.09
31595;BME280;18200;48.726;8.892;2023-03-03T07:30:32;97029.97;;;12.94;39.76
31595;BME280;18200;48.726;8.892;2023-03-03T07:34:39;97034.47;;;13.09;39.54
31595;BME280;18200;48.726;8.892;2023-03-03T07:38:50;97027.50;;;12.82;39.73
31595;BME280;18200;48.726;8.892;2023-03-03T07:42:52;97029.84;;;12.61;40.37
31595;BME280;18200;48.726;8.892;2023-03-03T07:47:20;97040.41;;;13.51;39.69
31595;BME280;18200;48.726;8.892;2023-03-03T07:51:25;97025.47;;;13.90;38.32
31595;BME280;18200;48.726;8.892;2023-03-03T07:55:34;97023.63;;;14.01;38.26
31595;BME280;18200;48.726;8.892;2023-03-03T07:59:36;97036.19;;;13.83;37.93
31595;BME280;18200;48.726;8.892;2023-03-03T08:03:37;97040.81;;;13.86;38.48
31595;BME280;18200;48.726;8.892;2023-03-03T08:07:37;97037.94;;;14.06;38.16
31595;BME280;18200;48.726;8.892;2023-03-03T08:11:52;97038.56;;;14.69;37.40
31595;BME280;18200;48.726;8.892;2023-03-03T08:20:37;97032.28;;;14.58;38.04
31595;BME280;18200;48.726;8.892;2023-03-03T08:24:38;97032.03;;;14.30;38.09
31595;BME280;18200;48.726;8.892;2023-03-03T08:28:38;97024.75;;;14.81;37.82
31595;BME280;18200;48.726;8.892;2023-03-03T08:32:38;97031.75;;;14.89;37.46
31595;BME280;18200;48.726;8.892;2023-03-03T08:36:39;97029.97;;;15.11;37.48
31595;BME280;18200;48.726;8.892;2023-03-03T08:40:39;97028.50;;;14.66;38.13
31595;BME280;18200;48.726;8.892;2023-03-03T08:44:40;97035.25;;;14.93;37.55
31595;BME280;18200;48.726;8.892;2023-03-03T08:48:40;97034.22;;;14.21;38.19
31595;BME280;18200;48.726;8.892;2023-03-03T08:52:41;97034.13;;;14.47;37.55
31595;BME280;18200;48.726;8.892;2023-03-03T08:56:42;97037.56;;;13.70;37.87
31595;BME280;18200;48.726;8.892;2023-03-03T09:00:42;97032.00;;;15.31;36.27
31595;BME280;18200;48.726;8.892;2023-03-03T09:04:43;97043.56;;;16.14;34.31
31595;BME280;18200;48.726;8.892;2023-03-03T09:08:43;97040.19;;;16.53;33.20
31595;BME280;18200;48.726;8.892;2023-03-03T09:12:46;97041.09;;;15.60;34.13
31595;BME280;18200;48.726;8.892;2023-03-03T09:16:50;97052.44;;;15.94;33.77
31595;BME280;18200;48.726;8.892;2023-03-03T09:20:53;97054.03;;;16.05;33.23
31595;BME280;18200;48.726;8.892;2023-03-03T09:24:56;97068.78;;;16.22;32.87
31595;BME280;18200;48.726;8.892;2023-03-03T09:33:41;97073.41;;;16.25;32.64
31595;BME280;18200;48.726;8.892;2023-03-03T09:37:40;97066.53;;;17.19;30.17
31595;BME280;18200;48.726;8.892;2023-03-03T09:46:19;97071.72;;;18.07;29.71
31595;BME280;18200;48.726;8.892;2023-03-03T09:59:24;97074.09;;;17.98;30.80
31595;BME280;18200;48.726;8.892;2023-03-03T10:12:03;97070.97;;;18.03;30.27
31595;BME280;18200;48.726;8.892;2023-03-03T10:16:28;97080.47;;;17.39;32.17
31595;BME280;18200;48.726;8.892;2023-03-03T10:20:38;97069.72;;;18.80;29.69
31595;BME280;18200;48.726;8.892;2023-03-03T10:24:55;97072.25;;;18.53;29.92
31595;BME280;18200;48.726;8.892;2023-03-03T10:37:31;97087.06;;;18.42;29.33
31595;BME280;18200;48.726;8.892;2023-03-03T10:41:52;97072.72;;;17.20;31.89
31595;BME280;18200;48.726;8.892;2023-03-03T10:46:18;97069.63;;;17.35;31.02
31595;BME280;18200;48.726;8.892;2023-03-03T10:51:19;97076.59;;;17.33;32.18
31595;BME280;18200;48.726;8.892;2023-03-03T10:59:52;97066.38;;;19.10;28.50
31595;BME280;18200;48.726;8.892;2023-03-03T11:08:40;97069.41;;;18.02;29.84
31595;BME280;18200;48.726;8.892;2023-03-03T11:13:20;97072.22;;;18.61;29.42
31595;BME280;18200;48.726;8.892;2023-03-03T11:17:41;97081.97;;;17.64;30.03
31595;BME280;18200;48.726;8.892;2023-03-03T11:22:00;97070.25;;;17.85;30.23
31595;BME280;18200;48.726;8.892;2023-03-03T11:30:28;97067.31;;;18.93;28.84
31595;BME280;18200;48.726;8.892;2023-03-03T11:34:55;97058.34;;;18.92;28.49
31595;BME280;18200;48.726;8.892;2023-03-03T11:39:07;97076.28;;;18.24;30.31
31595;BME280;18200;48.726;8.892;2023-03-03T11:43:21;97070.03;;;18.27;30.56
31595;BME280;18200;48.726;8.892;2023-03-03T11:47:32;97066.34;;;17.90;30.28
31595;BME280;18200;48.726;8.892;2023-03-03T11:56:13;97069.75;;;18.77;29.07
31595;BME280;18200;48.726;8.892;2023-03-03T12:00:55;97050.31;;;18.75;28.72
31595;BME280;18200;48.726;8.892;2023-03-03T12:09:19;97049.41;;;17.36;30.18
31595;BME280;18200;48.726;8.892;2023-03-03T12:13:39;97042.28;;;17.95;29.09
31595;BME280;18200;48.726;8.892;2023-03-03T12:18:34;97043.13;;;17.74;29.50
31595;BME280;18200;48.726;8.892;2023-03-03T12:22:24;97034.28;;;17.32;30.03
31595;BME280;18200;48.726;8.892;2023-03-03T12:35:42;97035.50;;;17.17;30.30
31595;BME280;18200;48.726;8.892;2023-03-03T12:44:14;97030.41;;;17.54;28.84
31595;BME280;18200;48.726;8.892;2023-03-03T12:48:22;97029.25;;;17.41;29.73
31595;BME280;18200;48.726;8.892;2023-03-03T13:05:59;97022.94;;;20.00;26.44
31595;BME280;18200;48.726;8.892;2023-03-03T13:10:23;97024.50;;;21.47;24.57
31595;BME280;18200;48.726;8.892;2023-03-03T13:18:58;97028.94;;;20.95;25.75
31595;BME280;18200;48.726;8.892;2023-03-03T13:23:16;97018.66;;;20.30;26.97
31595;BME280;18200;48.726;8.892;2023-03-03T13:27:24;97014.50;;;22.00;24.75
31595;BME280;18200;48.726;8.892;2023-03-03T13:31:48;97017.06;;;20.32;26.61
31595;BME280;18200;48.726;8.892;2023-03-03T13:35:58;97014.16;;;19.86;27.03
31595;BME280;18200;48.726;8.892;2023-03-03T13:44:15;97004.84;;;20.40;27.17
31595;BME280;18200;48.726;8.892;2023-03-03T13:52:37;97003.31;;;19.82;26.22
31595;BME280;18200;48.726;8.892;2023-03-03T13:56:57;97007.69;;;22.24;24.75
31595;BME280;18200;48.726;8.892;2023-03-03T14:01:16;97006.59;;;20.77;24.71
31595;BME280;18200;48.726;8.892;2023-03-03T14:10:16;96995.53;;;21.30;25.75
31595;BME280;18200;48.726;8.892;2023-03-03T14:14:41;96999.59;;;21.61;24.34
31595;BME280;18200;48.726;8.892;2023-03-03T14:23:26;96995.16;;;21.91;26.47
31595;BME280;18200;48.726;8.892;2023-03-03T14:31:45;96994.78;;;21.49;26.82
31595;BME280;18200;48.726;8.892;2023-03-03T14:48:26;96981.88;;;21.89;24.41
31595;BME280;18200;48.726;8.892;2023-03-03T14:52:32;96987.22;;;19.61;27.19
31595;BME280;18200;48.726;8.892;2023-03-03T14:56:33;96989.19;;;21.56;24.84
31595;BME280;18200;48.726;8.892;2023-03-03T15:00:35;96986.66;;;20.03;27.29
31595;BME280;18200;48.726;8.892;2023-03-03T15:04:36;96990.63;;;19.69;27.61
31595;BME280;18200;48.726;8.892;2023-03-03T15:08:39;96992.69;;;20.45;26.82
31595;BME280;18200;48.726;8.892;2023-03-03T15:12:41;96983.78;;;22.44;24.71
31595;BME280;18200;48.726;8.892;2023-03-03T15:16:42;96984.97;;;22.27;23.85
31595;BME280;18200;48.726;8.892;2023-03-03T15:38:08;96977.53;;;21.33;25.41
31595;BME280;18200;48.726;8.892;2023-03-03T15:42:17;96978.47;;;21.66;25.33
31595;BME280;18200;48.726;8.892;2023-03-03T15:55:33;96986.69;;;20.80;26.34
31595;BME280;18200;48.726;8.892;2023-03-03T15:59:48;96984.09;;;21.75;25.33
31595;BME280;18200;48.726;8.892;2023-03-03T16:04:00;96992.34;;;22.46;24.60
31595;BME280;18200;48.726;8.892;2023-03-03T16:08:10;96988.47;;;23.08;23.71
31595;BME280;18200;48.726;8.892;2023-03-03T16:16:44;96990.34;;;23.11;23.51
31595;BME280;18200;48.726;8.892;2023-03-03T16:21:18;97001.03;;;22.25;23.81
31595;BME280;18200;48.726;8.892;2023-03-03T16:34:54;97016.19;;;23.26;23.88
31595;BME280;18200;48.726;8.892;2023-03-03T16:39:14;97019.00;;;23.39;22.91
31595;BME280;18200;48.726;8.892;2023-03-03T16:43:42;97015.03;;;21.32;25.58
31595;BME280;18200;48.726;8.892;2023-03-03T16:52:12;97026.84;;;22.08;24.61
31595;BME280;18200;48.726;8.892;2023-03-03T17:01:00;97034.41;;;20.95;26.03
31595;BME280;18200;48.726;8.892;2023-03-03T17:14:23;97053.78;;;19.23;28.42
31595;BME280;18200;48.726;8.892;2023-03-03T17:23:07;97062.13;;;20.13;27.03
31595;BME280;18200;48.726;8.892;2023-03-03T17:27:33;97072.97;;;19.09;28.91
31595;BME280;18200;48.726;8.892;2023-03-03T17:35:58;97085.13;;;19.01;28.95
31595;BME280;18200;48.726;8.892;2023-03-03T17:40:16;97097.47;;;18.61;29.22
31595;BME280;18200;48.726;8.892;2023-03-03T17:44:24;97099.63;;;18.15;29.87
31595;BME280;18200;48.726;8.892;2023-03-03T17:57:48;97118.94;;;18.41;29.79
31595;BME280;18200;48.726;8.892;2023-03-03T18:10:57;97124.91;;;18.12;30.07
31595;BME280;18200;48.726;8.892;2023-03-03T18:15:26;97136.34;;;17.54;30.86
31595;BME280;18200;48.726;8.892;2023-03-03T18:19:56;97139.41;;;17.77;30.32
31595;BME280;18200;48.726;8.892;2023-03-03T18:24:26;97140.19;;;17.77;29.50
31595;BME280;18200;48.726;8.892;2023-03-03T18:28:42;97147.13;;;17.89;29.81
31595;BME280;18200;48.726;8.892;2023-03-03T18:36:59;97144.50;;;17.61;30.26
31595;BME280;18200;48.726;8.892;2023-03-03T18:41:09;97152.22;;;16.81;32.24
31595;BME280;18200;48.726;8.892;2023-03-03T18:49:48;97154.16;;;16.91;32.04
31595;BME280;18200;48.726;8.892;2023-03-03T18:54:19;97170.41;;;16.74;31.69
31595;BME280;18200;48.726;8.892;2023-03-03T19:02:33;97173.75;;;16.32;32.78
31595;BME280;18200;48.726;8.892;2023-03-03T19:14:39;97175.25;;;16.12;32.12
31595;BME280;18200;48.726;8.892;2023-03-03T19:23:02;97182.59;;;16.11;32.63
31595;BME280;18200;48.726;8.892;2023-03-03T19:27:17;97179.94;;;16.22;32.63
31595;BME280;18200;48.726;8.892;2023-03-03T19:36:05;97193.16;;;14.78;34.56
31595;BME280;18200;48.726;8.892;2023-03-03T19:44:38;97192.91;;;13.64;35.85
31595;BME280;18200;48.726;8.892;2023-03-03T19:58:05;97204.28;;;14.33;34.79
31595;BME280;18200;48.726;8.892;2023-03-03T20:03:32;97202.72;;;14.32;35.13
31595;BME280;18200;48.726;8.892;2023-03-03T20:07:02;97201.19;;;14.34;34.53
31595;BME280;18200;48.726;8.892;2023-03-03T20:11:09;97210.53;;;13.84;35.23
31595;BME280;18200;48.726;8.892;2023-03-03T20:15:21;97209.13;;;13.90;36.33
31595;BME280;18200;48.726;8.892;2023-03-03T20:19:39;97213.06;;;13.96;35.33
31595;BME280;18200;48.726;8.892;2023-03-03T20:27:50;97216.53;;;13.71;36.08
31595;BME280;18200;48.726;8.892;2023-03-03T20:40:37;97217.63;;;13.66;35.99
31595;BME280;18200;48.726;8.892;2023-03-03T20:49:26;97233.66;;;12.88;36.49
31595;BME280;18200;48.726;8.892;2023-03-03T20:58:04;97225.97;;;12.90;35.70
31595;BME280;18200;48.726;8.892;2023-03-03T21:06:36;97215.56;;;13.56;35.08
31595;BME280;18200;48.726;8.892;2023-03-03T21:10:38;97218.66;;;13.58;35.36
31595;BME280;18200;48.726;8.892;2023-03-03T21:14:38;97214.50;;;13.64;35.50
31595;BME280;18200;48.726;8.892;2023-03-03T21:18:39;97226.25;;;13.49;35.16
31595;BME280;18200;48.726;8.892;2023-03-03T21:22:39;97229.59;;;13.43;35.22
31595;BME280;18200;48.726;8.892;2023-03-03T21:31:15;97230.06;;;13.03;37.13
31595;BME280;18200;48.726;8.892;2023-03-03T21:35:18;97228.72;;;13.35;36.15
31595;BME280;18200;48.726;8.892;2023-03-03T21:39:26;97229.63;;;13.20;35.83
31595;BME280;18200;48.726;8.892;2023-03-03T21:43:48;97231.03;;;13.14;36.49
31595;BME280;18200;48.726;8.892;2023-03-03T21:47:50;97237.22;;;13.14;36.25
31595;BME280;18200;48.726;8.892;2023-03-03T21:51:50;97232.13;;;13.32;36.04
31595;BME280;18200;48.726;8.892;2023-03-03T21:55:54;97235.13;;;13.27;36.11
31595;BME280;18200;48.726;8.892;2023-03-03T21:59:54;97228.97;;;13.27;35.71
31595;BME280;18200;48.726;8.892;2023-03-03T22:03:55;97236.03;;;12.93;36.12
31595;BME280;18200;48.726;8.892;2023-03-03T22:07:55;97236.75;;;12.90;35.85
31595;BME280;18200;48.726;8.892;2023-03-03T22:11:55;97229.38;;;13.06;36.06
31595;BME280;18200;48.726;8.892;2023-03-03T22:15:56;97227.34;;;13.22;35.88
31595;BME280;18200;48.726;8.892;2023-03-03T22:19:56;97231.59;;;13.23;35.75
31595;BME280;18200;48.726;8.892;2023-03-03T22:23:57;97233.31;;;13.12;35.68
31595;BME280;18200;48.726;8.892;2023-03-03T22:27:57;97236.56;;;13.21;35.90
31595;BME280;18200;48.726;8.892;2023-03-03T22:31:57;97232.91;;;13.10;35.64
31595;BME280;18200;48.726;8.892;2023-03-03T22:35:58;97232.28;;;12.97;35.81
31595;BME280;18200;48.726;8.892;2023-03-03T22:39:58;97236.88;;;12.55;36.44
31595;BME280;18200;48.726;8.892;2023-03-03T22:44:00;97226.16;;;12.59;36.29
31595;BME280;18200;48.726;8.892;2023-03-03T22:48:00;97230.59;;;12.48;36.58
31595;BME280;18200;48.726;8.892;2023-03-03T22:52:00;97231.47;;;12.55;36.32
31595;BME280;18200;48.726;8.892;2023-03-03T22:56:01;97237.81;;;12.63;36.04
31595;BME280;18200;48.726;8.892;2023-03-03T23:00:04;97236.59;;;12.60;35.70
31595;BME280;18200;48.726;8.892;2023-03-03T23:04:06;97241.63;;;12.62;36.36
31595;BME280;18200;48.726;8.892;2023-03-03T23:08:12;97239.94;;;12.34;36.14
31595;BME280;18200;48.726;8.892;2023-03-03T23:12:12;97246.50;;;11.99;36.73
31595;BME280;18200;48.726;8.892;2023-03-03T23:16:13;97238.09;;;12.38;36.11
31595;BME280;18200;48.726;8.892;2023-03-03T23:20:21;97240.38;;;12.36;36.34
31595;BME280;18200;48.726;8.892;2023-03-03T23:24:22;97248.28;;;12.48;36.27
31595;BME280;18200;48.726;8.892;2023-03-03T23:28:23;97245.97;;;12.47;35.86
31595;BME280;18200;48.726;8.892;2023-03-03T23:32:23;97241.84;;;12.34;36.08
31595;BME280;18200;48.726;8.892;2023-03-03T23:36:23;97240.06;;;12.22;36.24
31595;BME280;18200;48.726;8.892;2023-03-03T23:40:24;97237.09;;;12.27;36.71
31595;BME280;18200;48.726;8.892;2023-03-03T23:44:24;97240.38;;;12.36;35.80
31595;BME280;18200;48.726;8.892;2023-03-03T23:48:25;97248.72;;;12.31;36.13
31595;BME280;18200;48.726;8.892;2023-03-03T23:52:25;97241.16;;;12.37;35.87
31595;BME280;18200;48.726;8.892;2023-03-03T23:56:25;97249.38;;;11.90;36.09
